PWSweather.com
Personal Weather Stations
Station Observations
SELKIRK1
Ontario, Selkirk, ON N0A 1P0

OntarioSelkirk, ON N0A 1P0

Lat: 42.8083652, Lon: -79.94971040000001

Elevation: 583

Station Type: Acurite 5 in 1

http://gavinsurf.com

High Low Average
Temperature 77.2°F25.1°C 68.4°F20.2°C 72.3°F22.4°C
Dew Point 76.9°F24.9°C 68.1°F20.1°C 71.4°F21.9°C
Winds 10.4 mph 16.7 kmh Calm Calm 3.0 mph SW4.8 kmh SW
Wind Gusts 10.4 mph16.7 kmh -- 4.0 mph6.4 kmh
Humidity 99% 87% 97%
Pressure 31.86 in1078.9 mb 31.59 in1069.8 mb -
Precipitation 1.34 in34.0 mm - -
Hour Temp Dew Point Humidity Winds Wind Gusts Pressure Precip Precip Rate Daily Precip Total
12:00 AM 71.1°F21.7°C 70.5°F21.4°C 98% 1.2 mph SW1.9 kmh SW 1.2 mph1.9 kmh 31.83 in1077.9 mb - 0.00 in0.0 mm 0.00 in0.0 mm
12:10 AM 71.1°F21.7°C 70.5°F21.4°C 98% 1.2 mph SW1.9 kmh SW -- 31.83 in1077.9 mb - 0.00 in0.0 mm 0.00 in0.0 mm
12:15 AM 71.1°F21.7°C 70.5°F21.4°C 98% Calm Calm 2.3 mph3.7 kmh 31.83 in1077.9 mb - 0.00 in0.0 mm 0.00 in0.0 mm
12:20 AM 71.1°F21.7°C 70.5°F21.4°C 98% 1.2 mph SW1.9 kmh SW 1.2 mph1.9 kmh 31.83 in1077.9 mb - 0.00 in0.0 mm 0.00 in0.0 mm
12:25 AM 71.3°F21.8°C 70.7°F21.5°C 98% Calm Calm 1.2 mph1.9 kmh 31.83 in1077.9 mb - 0.00 in0.0 mm 0.00 in0.0 mm
12:30 AM 71.3°F21.8°C 70.7°F21.5°C 98% 2.3 mph SW3.7 kmh SW 2.3 mph3.7 kmh 31.83 in1077.9 mb - 0.00 in0.0 mm 0.00 in0.0 mm
12:35 AM 71.4°F21.9°C 70.8°F21.6°C 98% 2.3 mph SW3.7 kmh SW 2.3 mph3.7 kmh 31.83 in1077.9 mb - 0.00 in0.0 mm 0.00 in0.0 mm
12:40 AM 71.4°F21.9°C 70.8°F21.6°C 98% 2.3 mph SW3.7 kmh SW 2.3 mph3.7 kmh 31.83 in1077.9 mb - 0.00 in0.0 mm 0.00 in0.0 mm
12:45 AM 71.6°F22.0°C 71.0°F21.7°C 98% 2.3 mph S3.7 kmh S 2.3 mph3.7 kmh 31.83 in1077.9 mb - 0.00 in0.0 mm 0.00 in0.0 mm
12:50 AM 71.6°F22.0°C 71.0°F21.7°C 98% 1.2 mph WSW1.9 kmh WSW 1.2 mph1.9 kmh 31.83 in1077.9 mb - 0.00 in0.0 mm 0.00 in0.0 mm
12:55 AM 71.8°F22.1°C 71.2°F21.8°C 98% 2.3 mph WNW3.7 kmh WNW 3.5 mph5.6 kmh 31.83 in1077.9 mb - 0.00 in0.0 mm 0.00 in0.0 mm
01:00 AM 72.0°F22.2°C 71.4°F21.9°C 98% 2.3 mph WSW3.7 kmh WSW 3.5 mph5.6 kmh 31.83 in1077.9 mb - 0.00 in0.0 mm 0.00 in0.0 mm
01:10 AM 72.7°F22.6°C 72.1°F22.3°C 98% 3.5 mph W5.6 kmh W 3.5 mph5.6 kmh 31.83 in1077.9 mb - 0.00 in0.0 mm 0.00 in0.0 mm
01:15 AM 72.7°F22.6°C 71.8°F22.1°C 97% 2.3 mph WSW3.7 kmh WSW 3.5 mph5.6 kmh 31.83 in1077.9 mb - 0.00 in0.0 mm 0.00 in0.0 mm
01:20 AM 72.9°F22.7°C 72.0°F22.2°C 97% 3.5 mph WSW5.6 kmh WSW 3.5 mph5.6 kmh 31.83 in1077.9 mb - 0.00 in0.0 mm 0.00 in0.0 mm
01:25 AM 72.9°F22.7°C 72.0°F22.2°C 97% 1.2 mph WSW1.9 kmh WSW 2.3 mph3.7 kmh 31.83 in1077.9 mb - 0.00 in0.0 mm 0.00 in0.0 mm
01:30 AM 73.1°F22.8°C 72.2°F22.3°C 97% 4.6 mph WNW7.4 kmh WNW 5.8 mph9.3 kmh 31.83 in1077.9 mb - 0.00 in0.0 mm 0.00 in0.0 mm
01:35 AM 73.2°F22.9°C 72.3°F22.4°C 97% 3.5 mph NW5.6 kmh NW 3.5 mph5.6 kmh 31.83 in1077.9 mb - 0.00 in0.0 mm 0.00 in0.0 mm
01:40 AM 73.2°F22.9°C 72.3°F22.4°C 97% 2.3 mph NNW3.7 kmh NNW 4.6 mph7.4 kmh 31.83 in1077.9 mb - 0.00 in0.0 mm 0.00 in0.0 mm
01:45 AM 73.2°F22.9°C 72.3°F22.4°C 97% 3.5 mph SW5.6 kmh SW 3.5 mph5.6 kmh 31.83 in1077.9 mb - 0.00 in0.0 mm 0.00 in0.0 mm
01:50 AM 73.4°F23.0°C 72.5°F22.5°C 97% 3.5 mph SW5.6 kmh SW 4.6 mph7.4 kmh 31.83 in1077.9 mb - 0.00 in0.0 mm 0.00 in0.0 mm
01:55 AM 73.4°F23.0°C 72.5°F22.5°C 97% 2.3 mph SSW3.7 kmh SSW 3.5 mph5.6 kmh 31.83 in1077.9 mb - 0.00 in0.0 mm 0.00 in0.0 mm
02:00 AM 73.4°F23.0°C 72.5°F22.5°C 97% 3.5 mph WSW5.6 kmh WSW 4.6 mph7.4 kmh 31.83 in1077.9 mb - 0.00 in0.0 mm 0.00 in0.0 mm
02:10 AM 73.4°F23.0°C 72.5°F22.5°C 97% 4.6 mph SW7.4 kmh SW 4.6 mph7.4 kmh 31.83 in1077.9 mb - 0.00 in0.0 mm 0.00 in0.0 mm
02:15 AM 73.4°F23.0°C 72.2°F22.3°C 96% 2.3 mph SW3.7 kmh SW 2.3 mph3.7 kmh 31.83 in1077.9 mb - 0.00 in0.0 mm 0.00 in0.0 mm
02:20 AM 73.2°F22.9°C 72.0°F22.2°C 96% 2.3 mph SW3.7 kmh SW 2.3 mph3.7 kmh 31.83 in1077.9 mb - 0.00 in0.0 mm 0.00 in0.0 mm
02:25 AM 73.2°F22.9°C 72.0°F22.2°C 96% 2.3 mph SW3.7 kmh SW 3.5 mph5.6 kmh 31.83 in1077.9 mb - 0.00 in0.0 mm 0.00 in0.0 mm
02:30 AM 72.9°F22.7°C 71.7°F22.1°C 96% 3.5 mph SW5.6 kmh SW 3.5 mph5.6 kmh 31.83 in1077.9 mb - 0.00 in0.0 mm 0.00 in0.0 mm
02:35 AM 72.9°F22.7°C 71.7°F22.1°C 96% 2.3 mph WSW3.7 kmh WSW 2.3 mph3.7 kmh 31.83 in1077.9 mb - 0.00 in0.0 mm 0.00 in0.0 mm
02:40 AM 72.7°F22.6°C 71.5°F21.9°C 96% 4.6 mph WSW7.4 kmh WSW 5.8 mph9.3 kmh 31.83 in1077.9 mb - 0.00 in0.0 mm 0.00 in0.0 mm
02:45 AM 72.5°F22.5°C 71.6°F22.0°C 97% 3.5 mph SW5.6 kmh SW 4.6 mph7.4 kmh 31.83 in1077.9 mb - 0.00 in0.0 mm 0.00 in0.0 mm
02:50 AM 72.5°F22.5°C 71.6°F22.0°C 97% 3.5 mph S5.6 kmh S 3.5 mph5.6 kmh 31.83 in1077.9 mb - 0.00 in0.0 mm 0.00 in0.0 mm
02:55 AM 72.5°F22.5°C 71.6°F22.0°C 97% 3.5 mph WSW5.6 kmh WSW 4.6 mph7.4 kmh 31.83 in1077.9 mb - 0.00 in0.0 mm 0.00 in0.0 mm
03:00 AM 72.3°F22.4°C 71.4°F21.9°C 97% 4.6 mph SW7.4 kmh SW 5.8 mph9.3 kmh 31.83 in1077.9 mb - 0.00 in0.0 mm 0.00 in0.0 mm
03:10 AM 71.8°F22.1°C 70.9°F21.6°C 97% 2.3 mph S3.7 kmh S 3.5 mph5.6 kmh 31.83 in1077.9 mb - 0.00 in0.0 mm 0.00 in0.0 mm
03:15 AM 71.3°F21.8°C 70.4°F21.3°C 97% 2.3 mph SW3.7 kmh SW 2.3 mph3.7 kmh 31.83 in1077.9 mb - 0.00 in0.0 mm 0.00 in0.0 mm
03:20 AM 70.9°F21.6°C 70.3°F21.3°C 98% 2.3 mph SSW3.7 kmh SSW 3.5 mph5.6 kmh 31.83 in1077.9 mb - 0.00 in0.0 mm 0.00 in0.0 mm
03:25 AM 70.5°F21.4°C 70.2°F21.2°C 99% 3.5 mph SSW5.6 kmh SSW 5.8 mph9.3 kmh 31.83 in1077.9 mb - 0.00 in0.0 mm 0.00 in0.0 mm
03:30 AM 70.5°F21.4°C 70.2°F21.2°C 99% 3.5 mph SW5.6 kmh SW 4.6 mph7.4 kmh 31.83 in1077.9 mb - 0.00 in0.0 mm 0.00 in0.0 mm
03:35 AM 70.5°F21.4°C 70.2°F21.2°C 99% 3.5 mph SW5.6 kmh SW 5.8 mph9.3 kmh 31.83 in1077.9 mb - 0.00 in0.0 mm 0.00 in0.0 mm
03:40 AM 70.7°F21.5°C 70.4°F21.3°C 99% 4.6 mph WSW7.4 kmh WSW 5.8 mph9.3 kmh 31.83 in1077.9 mb - 0.00 in0.0 mm 0.00 in0.0 mm
03:45 AM 71.1°F21.7°C 70.8°F21.6°C 99% 3.5 mph SSW5.6 kmh SSW 6.9 mph11.1 kmh 31.83 in1077.9 mb - 0.00 in0.0 mm 0.00 in0.0 mm
03:50 AM 71.3°F21.8°C 71.0°F21.7°C 99% 4.6 mph SW7.4 kmh SW 6.9 mph11.1 kmh 31.83 in1077.9 mb - 0.00 in0.0 mm 0.00 in0.0 mm
03:55 AM 71.3°F21.8°C 71.0°F21.7°C 99% 3.5 mph SW5.6 kmh SW 4.6 mph7.4 kmh 31.83 in1077.9 mb - 0.00 in0.0 mm 0.00 in0.0 mm
04:00 AM 71.3°F21.8°C 71.0°F21.7°C 99% 3.5 mph SSW5.6 kmh SSW 4.6 mph7.4 kmh 31.83 in1077.9 mb - 0.00 in0.0 mm 0.00 in0.0 mm
04:10 AM 70.7°F21.5°C 70.4°F21.3°C 99% 2.3 mph SW3.7 kmh SW 4.6 mph7.4 kmh 31.83 in1077.9 mb - 0.00 in0.0 mm 0.00 in0.0 mm
04:15 AM 70.7°F21.5°C 70.4°F21.3°C 99% 2.3 mph SSW3.7 kmh SSW 3.5 mph5.6 kmh 31.83 in1077.9 mb - 0.00 in0.0 mm 0.00 in0.0 mm
04:20 AM 70.7°F21.5°C 70.4°F21.3°C 99% 3.5 mph SW5.6 kmh SW 3.5 mph5.6 kmh 31.83 in1077.9 mb - 0.00 in0.0 mm 0.00 in0.0 mm
04:25 AM 70.5°F21.4°C 70.2°F21.2°C 99% 2.3 mph SW3.7 kmh SW 3.5 mph5.6 kmh 31.83 in1077.9 mb - 0.00 in0.0 mm 0.00 in0.0 mm
04:30 AM 70.5°F21.4°C 70.2°F21.2°C 99% 3.5 mph S5.6 kmh S 4.6 mph7.4 kmh 31.83 in1077.9 mb - 0.00 in0.0 mm 0.00 in0.0 mm
04:35 AM 70.5°F21.4°C 70.2°F21.2°C 99% 3.5 mph WSW5.6 kmh WSW 3.5 mph5.6 kmh 31.83 in1077.9 mb - 0.00 in0.0 mm 0.00 in0.0 mm
04:40 AM 70.5°F21.4°C 70.2°F21.2°C 99% 3.5 mph SSW5.6 kmh SSW 3.5 mph5.6 kmh 31.83 in1077.9 mb - 0.00 in0.0 mm 0.00 in0.0 mm
04:45 AM 70.5°F21.4°C 70.2°F21.2°C 99% 3.5 mph SW5.6 kmh SW 3.5 mph5.6 kmh 31.83 in1077.9 mb - 0.00 in0.0 mm 0.00 in0.0 mm
04:50 AM 70.5°F21.4°C 70.2°F21.2°C 99% 3.5 mph SW5.6 kmh SW 3.5 mph5.6 kmh 31.83 in1077.9 mb - 0.00 in0.0 mm 0.00 in0.0 mm
04:55 AM 70.4°F21.3°C 70.1°F21.2°C 99% 4.6 mph SW7.4 kmh SW 5.8 mph9.3 kmh 31.83 in1077.9 mb - 0.00 in0.0 mm 0.00 in0.0 mm
05:00 AM 70.2°F21.2°C 69.9°F21.1°C 99% 4.6 mph SSW7.4 kmh SSW 5.8 mph9.3 kmh 31.83 in1077.9 mb - 0.00 in0.0 mm 0.00 in0.0 mm
05:10 AM 69.8°F21.0°C 69.5°F20.8°C 99% 2.3 mph SSW3.7 kmh SSW 3.5 mph5.6 kmh 31.83 in1077.9 mb - 0.00 in0.0 mm 0.00 in0.0 mm
05:15 AM 69.6°F20.9°C 69.3°F20.7°C 99% 2.3 mph SW3.7 kmh SW 3.5 mph5.6 kmh 31.83 in1077.9 mb - 0.00 in0.0 mm 0.00 in0.0 mm
05:20 AM 69.6°F20.9°C 69.3°F20.7°C 99% 2.3 mph S3.7 kmh S 2.3 mph3.7 kmh 31.83 in1077.9 mb - 0.00 in0.0 mm 0.00 in0.0 mm
05:25 AM 69.6°F20.9°C 69.3°F20.7°C 99% 3.5 mph SW5.6 kmh SW 4.6 mph7.4 kmh 31.83 in1077.9 mb - 0.00 in0.0 mm 0.00 in0.0 mm
05:30 AM 69.6°F20.9°C 69.3°F20.7°C 99% 3.5 mph SSW5.6 kmh SSW 4.6 mph7.4 kmh 31.83 in1077.9 mb - 0.00 in0.0 mm 0.00 in0.0 mm
05:35 AM 69.6°F20.9°C 69.3°F20.7°C 99% 3.5 mph SW5.6 kmh SW 3.5 mph5.6 kmh 31.83 in1077.9 mb - 0.00 in0.0 mm 0.00 in0.0 mm
05:40 AM 69.5°F20.8°C 69.2°F20.7°C 99% 3.5 mph W5.6 kmh W 2.3 mph3.7 kmh 31.83 in1077.9 mb - 0.00 in0.0 mm 0.00 in0.0 mm
05:45 AM 69.5°F20.8°C 69.2°F20.7°C 99% 3.5 mph SW5.6 kmh SW 4.6 mph7.4 kmh 31.83 in1077.9 mb - 0.00 in0.0 mm 0.00 in0.0 mm
05:50 AM 69.5°F20.8°C 69.2°F20.7°C 99% 4.6 mph SSW7.4 kmh SSW 4.6 mph7.4 kmh 31.83 in1077.9 mb - 0.00 in0.0 mm 0.00 in0.0 mm
05:55 AM 69.3°F20.7°C 69.0°F20.6°C 99% 3.5 mph SW5.6 kmh SW 5.8 mph9.3 kmh 31.83 in1077.9 mb - 0.00 in0.0 mm 0.00 in0.0 mm
06:00 AM 69.3°F20.7°C 69.0°F20.6°C 99% 3.5 mph SSW5.6 kmh SSW 4.6 mph7.4 kmh 31.83 in1077.9 mb - 0.00 in0.0 mm 0.00 in0.0 mm
06:10 AM 69.3°F20.7°C 69.0°F20.6°C 99% 2.3 mph SW3.7 kmh SW 4.6 mph7.4 kmh 31.83 in1077.9 mb - 0.00 in0.0 mm 0.00 in0.0 mm
06:15 AM 69.5°F20.8°C 69.2°F20.7°C 99% 3.5 mph WSW5.6 kmh WSW 3.5 mph5.6 kmh 31.83 in1077.9 mb - 0.00 in0.0 mm 0.00 in0.0 mm
06:20 AM 69.5°F20.8°C 69.2°F20.7°C 99% 3.5 mph SSW5.6 kmh SSW 3.5 mph5.6 kmh 31.83 in1077.9 mb - 0.00 in0.0 mm 0.00 in0.0 mm
06:25 AM 69.8°F21.0°C 69.5°F20.8°C 99% 3.5 mph N5.6 kmh N 3.5 mph5.6 kmh 31.83 in1077.9 mb - 0.00 in0.0 mm 0.00 in0.0 mm
06:30 AM 69.8°F21.0°C 69.5°F20.8°C 99% 3.5 mph S5.6 kmh S 4.6 mph7.4 kmh 31.83 in1077.9 mb - 0.00 in0.0 mm 0.00 in0.0 mm
06:35 AM 70.0°F21.1°C 69.8°F21.0°C 99% 3.5 mph SW5.6 kmh SW 6.9 mph11.1 kmh 31.83 in1077.9 mb - 0.00 in0.0 mm 0.00 in0.0 mm
06:40 AM 70.5°F21.4°C 70.2°F21.2°C 99% 3.5 mph WSW5.6 kmh WSW 5.8 mph9.3 kmh 31.83 in1077.9 mb - 0.00 in0.0 mm 0.00 in0.0 mm
06:45 AM 70.7°F21.5°C 70.4°F21.3°C 99% 3.5 mph SSW5.6 kmh SSW 5.8 mph9.3 kmh 31.83 in1077.9 mb - 0.00 in0.0 mm 0.00 in0.0 mm
06:50 AM 70.7°F21.5°C 70.4°F21.3°C 99% 4.6 mph WSW7.4 kmh WSW 5.8 mph9.3 kmh 31.83 in1077.9 mb - 0.00 in0.0 mm 0.00 in0.0 mm
06:55 AM 70.9°F21.6°C 70.3°F21.3°C 98% 3.5 mph SW5.6 kmh SW 5.8 mph9.3 kmh 31.83 in1077.9 mb - 0.00 in0.0 mm 0.00 in0.0 mm
07:00 AM 70.9°F21.6°C 70.0°F21.1°C 97% 3.5 mph WSW5.6 kmh WSW 4.6 mph7.4 kmh 31.83 in1077.9 mb - 0.00 in0.0 mm 0.00 in0.0 mm
07:10 AM 70.9°F21.6°C 70.0°F21.1°C 97% 2.3 mph S3.7 kmh S 3.5 mph5.6 kmh 31.83 in1077.9 mb - 0.00 in0.0 mm 0.00 in0.0 mm
07:15 AM 70.6°F21.4°C 69.7°F20.9°C 97% 3.5 mph SW5.6 kmh SW 3.5 mph5.6 kmh 31.83 in1077.9 mb - 0.00 in0.0 mm 0.00 in0.0 mm
07:20 AM 70.5°F21.4°C 69.6°F20.9°C 97% 4.6 mph SW7.4 kmh SW 5.8 mph9.3 kmh 31.83 in1077.9 mb - 0.00 in0.0 mm 0.00 in0.0 mm
07:25 AM 70.7°F21.5°C 69.8°F21.0°C 97% 2.3 mph SW3.7 kmh SW 2.3 mph3.7 kmh 31.83 in1077.9 mb - 0.00 in0.0 mm 0.00 in0.0 mm
07:30 AM 70.7°F21.5°C 69.8°F21.0°C 97% 2.3 mph SW3.7 kmh SW 4.6 mph7.4 kmh 31.83 in1077.9 mb - 0.00 in0.0 mm 0.00 in0.0 mm
07:35 AM 70.7°F21.5°C 69.8°F21.0°C 97% 2.3 mph SW3.7 kmh SW 2.3 mph3.7 kmh 31.83 in1077.9 mb - 0.00 in0.0 mm 0.00 in0.0 mm
07:40 AM 70.9°F21.6°C 70.0°F21.1°C 97% 2.3 mph WSW3.7 kmh WSW 2.3 mph3.7 kmh 31.83 in1077.9 mb - 0.00 in0.0 mm 0.00 in0.0 mm
07:45 AM 70.7°F21.5°C 69.8°F21.0°C 97% 2.3 mph SW3.7 kmh SW 2.3 mph3.7 kmh 31.83 in1077.9 mb - 0.00 in0.0 mm 0.00 in0.0 mm
07:50 AM 70.4°F21.3°C 69.8°F21.0°C 98% 3.5 mph WSW5.6 kmh WSW 5.8 mph9.3 kmh 31.83 in1077.9 mb - 0.00 in0.0 mm 0.00 in0.0 mm
07:55 AM 70.4°F21.3°C 69.9°F21.1°C 98% 2.3 mph SW3.7 kmh SW 3.5 mph5.6 kmh 31.83 in1077.9 mb - 0.00 in0.0 mm 0.00 in0.0 mm
08:00 AM 70.7°F21.5°C 70.1°F21.2°C 98% 2.3 mph SSW3.7 kmh SSW 3.5 mph5.6 kmh 31.83 in1077.9 mb - 0.00 in0.0 mm 0.00 in0.0 mm
08:10 AM 70.9°F21.6°C 70.0°F21.1°C 97% 3.5 mph W5.6 kmh W 5.8 mph9.3 kmh 31.83 in1077.9 mb - 0.00 in0.0 mm 0.00 in0.0 mm
08:15 AM 71.4°F21.9°C 70.2°F21.2°C 96% 3.5 mph WSW5.6 kmh WSW 3.5 mph5.6 kmh 31.83 in1077.9 mb - 0.00 in0.0 mm 0.00 in0.0 mm
08:20 AM 71.3°F21.8°C 70.1°F21.2°C 96% 3.5 mph SW5.6 kmh SW 3.5 mph5.6 kmh 31.83 in1077.9 mb - 0.00 in0.0 mm 0.00 in0.0 mm
08:25 AM 71.8°F22.1°C 70.3°F21.3°C 95% 2.3 mph S3.7 kmh S 5.8 mph9.3 kmh 31.83 in1077.9 mb - 0.00 in0.0 mm 0.00 in0.0 mm
08:30 AM 71.8°F22.1°C 70.3°F21.3°C 95% 3.5 mph SW5.6 kmh SW 3.5 mph5.6 kmh 31.83 in1077.9 mb - 0.00 in0.0 mm 0.00 in0.0 mm
08:35 AM 71.3°F21.8°C 69.8°F21.0°C 95% 3.5 mph SW5.6 kmh SW 4.6 mph7.4 kmh 31.83 in1077.9 mb - 0.00 in0.0 mm 0.00 in0.0 mm
08:40 AM 71.1°F21.7°C 69.6°F20.9°C 95% 3.5 mph SW5.6 kmh SW 4.6 mph7.4 kmh 31.83 in1077.9 mb - 0.00 in0.0 mm 0.00 in0.0 mm
08:45 AM 70.9°F21.6°C 69.7°F20.9°C 96% 2.3 mph SW3.7 kmh SW 4.6 mph7.4 kmh 31.83 in1077.9 mb - 0.00 in0.0 mm 0.00 in0.0 mm
08:50 AM 70.7°F21.5°C 69.5°F20.8°C 96% 3.5 mph WSW5.6 kmh WSW 5.8 mph9.3 kmh 31.83 in1077.9 mb - 0.00 in0.0 mm 0.00 in0.0 mm
08:55 AM 70.7°F21.5°C 69.5°F20.8°C 96% 2.3 mph SW3.7 kmh SW 3.5 mph5.6 kmh 31.83 in1077.9 mb - 0.00 in0.0 mm 0.00 in0.0 mm
09:00 AM 70.7°F21.5°C 69.5°F20.8°C 96% 2.3 mph W3.7 kmh W 2.3 mph3.7 kmh 31.83 in1077.9 mb - 0.00 in0.0 mm 0.00 in0.0 mm
09:10 AM 71.2°F21.8°C 69.7°F20.9°C 95% 2.3 mph W3.7 kmh W 3.5 mph5.6 kmh 31.83 in1077.9 mb - 0.00 in0.0 mm 0.00 in0.0 mm
09:15 AM 71.9°F22.2°C 70.1°F21.2°C 94% 3.5 mph WSW5.6 kmh WSW 4.6 mph7.4 kmh 31.83 in1077.9 mb - 0.00 in0.0 mm 0.00 in0.0 mm
09:20 AM 71.1°F21.7°C 69.3°F20.7°C 94% 3.5 mph SW5.6 kmh SW 4.6 mph7.4 kmh 31.83 in1077.9 mb - 0.00 in0.0 mm 0.00 in0.0 mm
09:25 AM 72.4°F22.4°C 69.9°F21.1°C 92% 3.5 mph WSW5.6 kmh WSW 4.6 mph7.4 kmh 31.83 in1077.9 mb - 0.00 in0.0 mm 0.00 in0.0 mm
09:30 AM 71.8°F22.1°C 69.6°F20.9°C 93% 3.5 mph WSW5.6 kmh WSW 3.5 mph5.6 kmh 31.83 in1077.9 mb - 0.00 in0.0 mm 0.00 in0.0 mm
09:35 AM 71.3°F21.8°C 69.5°F20.8°C 94% 2.3 mph NE3.7 kmh NE 4.6 mph7.4 kmh 31.83 in1077.9 mb - 0.00 in0.0 mm 0.00 in0.0 mm
09:40 AM 72.4°F22.4°C 70.2°F21.2°C 93% 3.5 mph WSW5.6 kmh WSW 3.5 mph5.6 kmh 31.83 in1077.9 mb - 0.00 in0.0 mm 0.00 in0.0 mm
09:45 AM 73.1°F22.8°C 70.9°F21.6°C 93% 4.6 mph SSW7.4 kmh SSW 5.8 mph9.3 kmh 31.83 in1077.9 mb - 0.00 in0.0 mm 0.00 in0.0 mm
09:50 AM 73.4°F23.0°C 70.9°F21.6°C 92% 3.5 mph SW5.6 kmh SW 6.9 mph11.1 kmh 31.83 in1077.9 mb - 0.00 in0.0 mm 0.00 in0.0 mm
09:55 AM 73.7°F23.2°C 70.9°F21.6°C 91% 4.6 mph SW7.4 kmh SW 4.6 mph7.4 kmh 31.83 in1077.9 mb - 0.00 in0.0 mm 0.00 in0.0 mm
10:00 AM 74.2°F23.4°C 71.4°F21.9°C 91% 4.6 mph SSW7.4 kmh SSW 6.9 mph11.1 kmh 31.83 in1077.9 mb - 0.00 in0.0 mm 0.00 in0.0 mm
10:10 AM 73.8°F23.2°C 71.0°F21.7°C 91% 4.6 mph SW7.4 kmh SW 5.8 mph9.3 kmh 31.83 in1077.9 mb - 0.00 in0.0 mm 0.00 in0.0 mm
10:15 AM 73.4°F23.0°C 70.6°F21.4°C 91% 4.6 mph SW7.4 kmh SW 6.9 mph11.1 kmh 31.83 in1077.9 mb - 0.00 in0.0 mm 0.00 in0.0 mm
10:20 AM 72.9°F22.7°C 70.1°F21.2°C 91% 4.6 mph SW7.4 kmh SW 5.8 mph9.3 kmh 31.83 in1077.9 mb - 0.00 in0.0 mm 0.00 in0.0 mm
10:25 AM 72.7°F22.6°C 69.9°F21.1°C 91% 3.5 mph WSW5.6 kmh WSW 5.8 mph9.3 kmh 31.83 in1077.9 mb - 0.00 in0.0 mm 0.00 in0.0 mm
10:30 AM 72.5°F22.5°C 70.0°F21.1°C 92% 3.5 mph WNW5.6 kmh WNW 4.6 mph7.4 kmh 31.83 in1077.9 mb - 0.00 in0.0 mm 0.00 in0.0 mm
10:35 AM 72.5°F22.5°C 70.0°F21.1°C 92% 4.6 mph SW7.4 kmh SW 5.8 mph9.3 kmh 31.83 in1077.9 mb - 0.00 in0.0 mm 0.00 in0.0 mm
10:40 AM 72.7°F22.6°C 70.2°F21.2°C 92% 4.6 mph WSW7.4 kmh WSW 4.6 mph7.4 kmh 31.83 in1077.9 mb - 0.00 in0.0 mm 0.00 in0.0 mm
10:45 AM 72.5°F22.5°C 70.0°F21.1°C 92% 4.6 mph WSW7.4 kmh WSW 5.8 mph9.3 kmh 31.83 in1077.9 mb - 0.00 in0.0 mm 0.00 in0.0 mm
10:50 AM 73.4°F23.0°C 70.6°F21.4°C 91% 4.6 mph SSW7.4 kmh SSW 5.8 mph9.3 kmh 31.83 in1077.9 mb - 0.00 in0.0 mm 0.00 in0.0 mm
10:55 AM 73.0°F22.8°C 70.5°F21.4°C 92% 4.6 mph SW7.4 kmh SW 5.8 mph9.3 kmh 31.83 in1077.9 mb - 0.00 in0.0 mm 0.00 in0.0 mm
11:00 AM 73.2°F22.9°C 70.7°F21.5°C 92% 3.5 mph SSW5.6 kmh SSW 5.8 mph9.3 kmh 31.83 in1077.9 mb - 0.00 in0.0 mm 0.00 in0.0 mm
11:10 AM 74.7°F23.7°C 71.2°F21.8°C 89% 3.5 mph SW5.6 kmh SW 5.8 mph9.3 kmh 31.83 in1077.9 mb - 0.00 in0.0 mm 0.00 in0.0 mm
11:15 AM 75.0°F23.9°C 71.2°F21.8°C 88% 5.8 mph WSW9.3 kmh WSW 5.8 mph9.3 kmh 31.83 in1077.9 mb - 0.00 in0.0 mm 0.00 in0.0 mm
11:20 AM 73.4°F23.0°C 70.3°F21.3°C 90% 4.6 mph W7.4 kmh W 5.8 mph9.3 kmh 31.83 in1077.9 mb - 0.00 in0.0 mm 0.00 in0.0 mm
11:25 AM 73.9°F23.3°C 71.1°F21.7°C 91% 3.5 mph SW5.6 kmh SW 5.8 mph9.3 kmh 31.83 in1077.9 mb - 0.00 in0.0 mm 0.00 in0.0 mm
11:30 AM 74.3°F23.5°C 70.8°F21.6°C 89% 3.5 mph WSW5.6 kmh WSW 4.6 mph7.4 kmh 31.83 in1077.9 mb - 0.00 in0.0 mm 0.00 in0.0 mm
11:35 AM 74.5°F23.6°C 71.0°F21.7°C 89% 4.6 mph WSW7.4 kmh WSW 4.6 mph7.4 kmh 31.83 in1077.9 mb - 0.00 in0.0 mm 0.00 in0.0 mm
11:40 AM 75.2°F24.0°C 71.4°F21.9°C 88% 3.5 mph SSW5.6 kmh SSW 4.6 mph7.4 kmh 31.83 in1077.9 mb - 0.00 in0.0 mm 0.00 in0.0 mm
11:45 AM 74.9°F23.8°C 71.1°F21.7°C 88% 4.6 mph SW7.4 kmh SW 5.8 mph9.3 kmh 31.83 in1077.9 mb - 0.00 in0.0 mm 0.00 in0.0 mm
11:50 AM 74.1°F23.4°C 70.6°F21.4°C 89% 4.6 mph SW7.4 kmh SW 4.6 mph7.4 kmh 31.83 in1077.9 mb - 0.00 in0.0 mm 0.00 in0.0 mm
11:55 AM 74.7°F23.7°C 71.2°F21.8°C 89% 4.6 mph SW7.4 kmh SW 5.8 mph9.3 kmh 31.83 in1077.9 mb - 0.00 in0.0 mm 0.00 in0.0 mm
12:00 PM 74.9°F23.8°C 71.1°F21.7°C 88% 6.9 mph SW11.1 kmh SW 8.1 mph13.0 kmh 31.83 in1077.9 mb - 0.00 in0.0 mm 0.00 in0.0 mm
12:10 PM 74.1°F23.4°C 70.6°F21.4°C 89% 9.2 mph S14.8 kmh S 10.4 mph16.7 kmh 31.83 in1077.9 mb - 0.00 in0.0 mm 0.00 in0.0 mm
12:15 PM 74.1°F23.4°C 70.6°F21.4°C 89% 10.4 mph SW16.7 kmh SW 9.2 mph14.8 kmh 31.83 in1077.9 mb - 0.00 in0.0 mm 0.00 in0.0 mm
12:20 PM 75.0°F23.9°C 71.5°F21.9°C 89% 3.5 mph SE5.6 kmh SE 5.8 mph9.3 kmh 31.83 in1077.9 mb - 0.00 in0.0 mm 0.00 in0.0 mm
12:25 PM 76.1°F24.5°C 71.9°F22.2°C 87% 4.6 mph SW7.4 kmh SW 5.8 mph9.3 kmh 31.83 in1077.9 mb - 0.00 in0.0 mm 0.00 in0.0 mm
12:30 PM 73.9°F23.3°C 70.7°F21.5°C 90% 5.8 mph SSW9.3 kmh SSW 5.8 mph9.3 kmh 31.83 in1077.9 mb - 0.00 in0.0 mm 0.00 in0.0 mm
12:35 PM 73.1°F22.8°C 70.3°F21.3°C 91% 4.6 mph SW7.4 kmh SW 4.6 mph7.4 kmh 31.83 in1077.9 mb - 0.00 in0.0 mm 0.00 in0.0 mm
12:40 PM 74.3°F23.5°C 71.2°F21.8°C 90% 5.8 mph SW9.3 kmh SW 6.9 mph11.1 kmh 31.83 in1077.9 mb - 0.00 in0.0 mm 0.00 in0.0 mm
12:45 PM 75.0°F23.9°C 71.2°F21.8°C 88% 5.8 mph SW9.3 kmh SW 6.9 mph11.1 kmh 31.83 in1077.9 mb - 0.00 in0.0 mm 0.00 in0.0 mm
12:50 PM 74.3°F23.5°C 71.2°F21.8°C 90% 4.6 mph SW7.4 kmh SW 8.1 mph13.0 kmh 31.83 in1077.9 mb - 0.00 in0.0 mm 0.00 in0.0 mm
12:55 PM 74.1°F23.4°C 71.0°F21.7°C 90% 4.6 mph WSW7.4 kmh WSW 5.8 mph9.3 kmh 31.83 in1077.9 mb - 0.00 in0.0 mm 0.00 in0.0 mm
01:00 PM 75.2°F24.0°C 71.4°F21.9°C 88% 8.1 mph SW13.0 kmh SW 8.1 mph13.0 kmh 31.83 in1077.9 mb - 0.00 in0.0 mm 0.00 in0.0 mm
01:10 PM 72.9°F22.7°C 70.1°F21.2°C 91% 8.1 mph SW13.0 kmh SW 9.2 mph14.8 kmh 31.83 in1077.9 mb - 0.00 in0.0 mm 0.00 in0.0 mm
01:15 PM 72.0°F22.2°C 69.8°F21.0°C 93% 6.9 mph SW11.1 kmh SW 6.9 mph11.1 kmh 31.83 in1077.9 mb - 0.00 in0.0 mm 0.00 in0.0 mm
01:20 PM 71.4°F21.9°C 69.6°F20.9°C 94% 5.8 mph SSW9.3 kmh SSW 5.8 mph9.3 kmh 31.83 in1077.9 mb - 0.00 in0.0 mm 0.00 in0.0 mm
01:25 PM 71.4°F21.9°C 69.5°F20.8°C 94% 5.8 mph SW9.3 kmh SW 6.9 mph11.1 kmh 31.83 in1077.9 mb - 0.00 in0.0 mm 0.00 in0.0 mm
01:30 PM 71.1°F21.7°C 69.6°F20.9°C 95% 4.6 mph W7.4 kmh W 5.8 mph9.3 kmh 31.83 in1077.9 mb - 0.00 in0.0 mm 0.00 in0.0 mm
01:35 PM 71.3°F21.8°C 69.8°F21.0°C 95% 4.6 mph SW7.4 kmh SW 5.8 mph9.3 kmh 31.83 in1077.9 mb - 0.00 in0.0 mm 0.00 in0.0 mm
01:40 PM 70.7°F21.5°C 69.2°F20.7°C 95% 2.3 mph E3.7 kmh E 3.5 mph5.6 kmh 31.83 in1077.9 mb - 0.00 in0.0 mm 0.00 in0.0 mm
01:45 PM 70.7°F21.5°C 69.5°F20.8°C 96% 3.5 mph SSW5.6 kmh SSW 5.8 mph9.3 kmh 31.83 in1077.9 mb - 0.00 in0.0 mm 0.00 in0.0 mm
01:50 PM 70.7°F21.5°C 69.5°F20.8°C 96% 4.6 mph SSW7.4 kmh SSW 4.6 mph7.4 kmh 31.83 in1077.9 mb - 0.00 in0.0 mm 0.00 in0.0 mm
01:55 PM 71.4°F21.9°C 70.2°F21.2°C 96% 3.5 mph WNW5.6 kmh WNW 3.5 mph5.6 kmh 31.83 in1077.9 mb - 0.00 in0.0 mm 0.00 in0.0 mm
02:00 PM 71.3°F21.8°C 70.1°F21.2°C 96% 4.6 mph SW7.4 kmh SW 5.8 mph9.3 kmh 31.83 in1077.9 mb - 0.00 in0.0 mm 0.00 in0.0 mm
02:10 PM 72.5°F22.5°C 71.3°F21.8°C 96% 2.3 mph NE3.7 kmh NE 3.5 mph5.6 kmh 31.83 in1077.9 mb - 0.00 in0.0 mm 0.00 in0.0 mm
02:15 PM 73.0°F22.8°C 71.5°F21.9°C 95% 4.6 mph N7.4 kmh N 5.8 mph9.3 kmh 31.83 in1077.9 mb - 0.00 in0.0 mm 0.00 in0.0 mm
02:20 PM 74.9°F23.8°C 73.3°F22.9°C 95% 6.9 mph W11.1 kmh W 9.2 mph14.8 kmh 31.83 in1077.9 mb - 0.00 in0.0 mm 0.00 in0.0 mm
02:25 PM 75.0°F23.9°C 73.8°F23.2°C 96% 3.5 mph WNW5.6 kmh WNW 5.8 mph9.3 kmh 31.83 in1077.9 mb - 0.00 in0.0 mm 0.00 in0.0 mm
02:30 PM 75.3°F24.1°C 74.7°F23.7°C 98% 2.3 mph E3.7 kmh E 2.3 mph3.7 kmh 31.83 in1077.9 mb - 0.00 in0.0 mm 0.00 in0.0 mm
02:35 PM 75.6°F24.2°C 75.3°F24.1°C 99% Calm Calm -- 31.83 in1077.9 mb - 0.00 in0.0 mm 0.00 in0.0 mm
02:40 PM 75.6°F24.2°C 75.3°F24.1°C 99% Calm Calm -- 31.83 in1077.9 mb - 0.02 in0.5 mm 0.02 in0.5 mm
02:45 PM 75.8°F24.3°C 75.5°F24.2°C 99% 1.2 mph ENE1.9 kmh ENE 1.2 mph1.9 kmh 31.83 in1077.9 mb - 0.04 in1.0 mm 0.04 in1.0 mm
02:50 PM 75.9°F24.4°C 75.6°F24.2°C 99% Calm Calm -- 31.83 in1077.9 mb - 0.07 in1.8 mm 0.07 in1.8 mm
02:55 PM 75.9°F24.4°C 75.6°F24.2°C 99% Calm Calm 1.2 mph1.9 kmh 31.83 in1077.9 mb - 0.15 in3.8 mm 0.15 in3.8 mm
03:00 PM 75.9°F24.4°C 75.6°F24.2°C 99% Calm Calm -- 31.83 in1077.9 mb - 0.18 in4.6 mm 0.18 in4.6 mm
03:10 PM 75.8°F24.3°C 75.5°F24.2°C 99% 2.3 mph WSW3.7 kmh WSW 2.3 mph3.7 kmh 31.83 in1077.9 mb - 0.24 in6.1 mm 0.24 in6.1 mm
03:15 PM 75.8°F24.3°C 75.4°F24.1°C 99% 2.3 mph ESE3.7 kmh ESE 2.3 mph3.7 kmh 31.83 in1077.9 mb - 0.25 in6.4 mm 0.25 in6.4 mm
03:20 PM 77.0°F25.0°C 76.7°F24.8°C 99% Calm Calm -- 31.83 in1077.9 mb - 0.25 in6.4 mm 0.25 in6.4 mm
03:25 PM 77.2°F25.1°C 76.9°F24.9°C 99% 2.3 mph SSE3.7 kmh SSE 3.5 mph5.6 kmh 31.83 in1077.9 mb - 0.25 in6.4 mm 0.25 in6.4 mm
03:30 PM 76.1°F24.5°C 75.8°F24.3°C 99% Calm Calm -- 31.83 in1077.9 mb - 0.25 in6.4 mm 0.25 in6.4 mm
03:35 PM 74.2°F23.4°C 73.9°F23.3°C 99% 1.2 mph SE1.9 kmh SE 3.5 mph5.6 kmh 31.83 in1077.9 mb - 0.25 in6.4 mm 0.25 in6.4 mm
03:40 PM 73.0°F22.8°C 72.7°F22.6°C 99% 2.3 mph S3.7 kmh S 4.6 mph7.4 kmh 31.83 in1077.9 mb - 0.24 in6.1 mm 0.25 in6.4 mm
03:45 PM 71.8°F22.1°C 71.5°F21.9°C 99% 4.6 mph S7.4 kmh S 5.8 mph9.3 kmh 31.83 in1077.9 mb - 0.21 in5.3 mm 0.25 in6.4 mm
03:50 PM 68.7°F20.4°C 68.4°F20.2°C 99% 3.5 mph SSE5.6 kmh SSE 4.6 mph7.4 kmh 31.83 in1077.9 mb - 0.18 in4.6 mm 0.25 in6.4 mm
03:55 PM 68.4°F20.2°C 68.1°F20.1°C 99% 2.3 mph S3.7 kmh S 3.5 mph5.6 kmh 31.83 in1077.9 mb - 0.12 in3.0 mm 0.25 in6.4 mm
04:00 PM 69.1°F20.6°C 68.8°F20.4°C 99% 1.2 mph ESE1.9 kmh ESE 1.2 mph1.9 kmh 31.83 in1077.9 mb - 0.07 in1.8 mm 0.25 in6.4 mm
04:10 PM 70.6°F21.4°C 70.3°F21.3°C 99% 2.3 mph SSE3.7 kmh SSE 2.3 mph3.7 kmh 31.83 in1077.9 mb - 0.01 in0.3 mm 0.25 in6.4 mm
04:15 PM 70.9°F21.6°C 70.6°F21.4°C 99% 1.2 mph SSE1.9 kmh SSE 2.3 mph3.7 kmh 31.83 in1077.9 mb - 0.00 in0.0 mm 0.25 in6.4 mm
04:20 PM 71.1°F21.7°C 70.8°F21.6°C 99% 2.3 mph SW3.7 kmh SW 2.3 mph3.7 kmh 31.83 in1077.9 mb - 0.02 in0.5 mm 0.27 in6.9 mm
04:25 PM 71.1°F21.7°C 70.8°F21.6°C 99% 1.2 mph NE1.9 kmh NE 1.2 mph1.9 kmh 31.83 in1077.9 mb - 0.12 in3.0 mm 0.37 in9.4 mm
04:30 PM 71.4°F21.9°C 71.1°F21.7°C 99% Calm Calm -- 31.83 in1077.9 mb - 0.15 in3.8 mm 0.40 in10.2 mm
04:35 PM 71.8°F22.1°C 71.5°F21.9°C 99% Calm Calm -- 31.83 in1077.9 mb - 0.16 in4.1 mm 0.41 in10.4 mm
04:40 PM 72.1°F22.3°C 71.8°F22.1°C 99% Calm Calm 2.3 mph3.7 kmh 31.83 in1077.9 mb - 0.17 in4.3 mm 0.42 in10.7 mm
04:45 PM 72.7°F22.6°C 72.4°F22.4°C 99% 1.2 mph ESE1.9 kmh ESE 1.2 mph1.9 kmh 31.83 in1077.9 mb - 0.30 in7.6 mm 0.55 in14.0 mm
04:50 PM 73.2°F22.9°C 72.9°F22.7°C 99% Calm Calm 1.2 mph1.9 kmh 31.83 in1077.9 mb - 0.31 in7.9 mm 0.56 in14.2 mm
04:55 PM 73.2°F22.9°C 72.9°F22.7°C 99% 2.3 mph NE3.7 kmh NE 1.2 mph1.9 kmh 31.83 in1077.9 mb - 0.31 in7.9 mm 0.56 in14.2 mm
05:00 PM 73.5°F23.1°C 73.2°F22.9°C 99% 1.2 mph N1.9 kmh N 3.5 mph5.6 kmh 31.83 in1077.9 mb - 0.32 in8.1 mm 0.57 in14.5 mm
05:10 PM 74.1°F23.4°C 73.8°F23.2°C 99% 5.8 mph N9.3 kmh N 6.9 mph11.1 kmh 31.83 in1077.9 mb - 0.39 in9.9 mm 0.64 in16.3 mm
05:15 PM 74.5°F23.6°C 74.2°F23.4°C 99% 2.3 mph N3.7 kmh N 3.5 mph5.6 kmh 31.83 in1077.9 mb - 0.41 in10.4 mm 0.66 in16.8 mm
05:20 PM 74.5°F23.6°C 74.2°F23.4°C 99% 1.2 mph NE1.9 kmh NE 1.2 mph1.9 kmh 31.83 in1077.9 mb - 0.42 in10.7 mm 0.68 in17.3 mm
05:25 PM 74.5°F23.6°C 74.2°F23.4°C 99% Calm Calm -- 31.83 in1077.9 mb - 0.38 in9.7 mm 0.72 in18.3 mm
05:30 PM 74.7°F23.7°C 74.4°F23.6°C 99% Calm Calm -- 31.83 in1077.9 mb - 0.35 in8.9 mm 0.74 in18.8 mm
05:35 PM 74.9°F23.8°C 74.6°F23.7°C 99% 2.3 mph WNW3.7 kmh WNW 3.5 mph5.6 kmh 31.83 in1077.9 mb - 0.35 in8.9 mm 0.76 in19.3 mm
05:40 PM 74.9°F23.8°C 74.6°F23.7°C 99% 2.3 mph NNE3.7 kmh NNE 4.6 mph7.4 kmh 31.83 in1077.9 mb - 0.40 in10.2 mm 0.82 in20.8 mm
05:45 PM 74.2°F23.4°C 73.9°F23.3°C 99% 2.3 mph ESE3.7 kmh ESE 2.3 mph3.7 kmh 31.83 in1077.9 mb - 0.33 in8.4 mm 0.85 in21.6 mm
05:50 PM 74.1°F23.4°C 73.8°F23.2°C 99% 3.5 mph N5.6 kmh N 5.8 mph9.3 kmh 31.83 in1077.9 mb - 0.30 in7.6 mm 0.86 in21.8 mm
05:55 PM 74.5°F23.6°C 74.2°F23.4°C 99% 3.5 mph N5.6 kmh N 4.6 mph7.4 kmh 31.86 in1078.9 mb - 0.32 in8.1 mm 0.88 in22.4 mm
06:00 PM 74.7°F23.7°C 74.4°F23.6°C 99% 8.1 mph N13.0 kmh N 10.4 mph16.7 kmh 31.86 in1078.9 mb - 0.33 in8.4 mm 0.90 in22.9 mm
06:10 PM 74.5°F23.6°C 74.2°F23.4°C 99% 3.5 mph NW5.6 kmh NW 5.8 mph9.3 kmh 31.84 in1078.2 mb - 0.45 in11.4 mm 1.09 in27.7 mm
06:15 PM 74.7°F23.7°C 74.4°F23.6°C 99% 3.5 mph WNW5.6 kmh WNW 5.8 mph9.3 kmh 31.84 in1078.2 mb - 0.46 in11.7 mm 1.12 in28.4 mm
06:20 PM 74.7°F23.7°C 74.4°F23.6°C 99% 2.3 mph NW3.7 kmh NW 3.5 mph5.6 kmh 31.79 in1076.5 mb - 0.48 in12.2 mm 1.16 in29.5 mm
06:25 PM 74.7°F23.7°C 74.4°F23.6°C 99% 2.3 mph NW3.7 kmh NW 3.5 mph5.6 kmh 31.79 in1076.5 mb - 0.48 in12.2 mm 1.20 in30.5 mm
06:30 PM 74.7°F23.7°C 74.4°F23.6°C 99% 1.2 mph N1.9 kmh N 3.5 mph5.6 kmh 31.81 in1077.2 mb - 0.51 in13.0 mm 1.24 in31.5 mm
06:35 PM 74.7°F23.7°C 74.4°F23.6°C 99% Calm Calm 1.2 mph1.9 kmh 31.81 in1077.2 mb - 0.51 in13.0 mm 1.26 in32.0 mm
06:40 PM 74.4°F23.6°C 74.1°F23.4°C 99% 2.3 mph NW3.7 kmh NW 2.3 mph3.7 kmh 31.81 in1077.2 mb - 0.48 in12.2 mm 1.29 in32.8 mm
06:45 PM 74.3°F23.5°C 74.0°F23.3°C 99% 1.2 mph NW1.9 kmh NW 2.3 mph3.7 kmh 31.77 in1075.9 mb - 0.46 in11.7 mm 1.30 in33.0 mm
06:50 PM 74.3°F23.5°C 74.0°F23.3°C 99% 2.3 mph NNE3.7 kmh NNE 4.6 mph7.4 kmh 31.77 in1075.9 mb - 0.44 in11.2 mm 1.30 in33.0 mm
06:55 PM 74.5°F23.6°C 74.2°F23.4°C 99% 3.5 mph N5.6 kmh N 4.6 mph7.4 kmh 31.75 in1075.2 mb - 0.43 in10.9 mm 1.31 in33.3 mm
07:00 PM 74.5°F23.6°C 74.2°F23.4°C 99% 2.3 mph NW3.7 kmh NW 3.5 mph5.6 kmh 31.75 in1075.2 mb - 0.42 in10.7 mm 1.32 in33.5 mm
07:10 PM 74.5°F23.6°C 74.2°F23.4°C 99% 3.5 mph NW5.6 kmh NW 3.5 mph5.6 kmh 31.73 in1074.5 mb - 0.23 in5.8 mm 1.32 in33.5 mm
07:15 PM 74.5°F23.6°C 74.2°F23.4°C 99% 2.3 mph W3.7 kmh W 2.3 mph3.7 kmh 31.73 in1074.5 mb - 0.23 in5.8 mm 1.33 in33.8 mm
07:20 PM 74.3°F23.5°C 74.0°F23.3°C 99% 2.3 mph W3.7 kmh W 2.3 mph3.7 kmh 31.71 in1073.8 mb - 0.17 in4.3 mm 1.33 in33.8 mm
07:25 PM 74.3°F23.5°C 74.0°F23.3°C 99% Calm Calm -- 31.71 in1073.8 mb - 0.15 in3.8 mm 1.34 in34.0 mm
07:30 PM 74.2°F23.4°C 73.9°F23.3°C 99% 3.5 mph SW5.6 kmh SW 4.6 mph7.4 kmh 31.70 in1073.5 mb - 0.11 in2.8 mm 1.34 in34.0 mm
07:35 PM 71.4°F21.9°C 71.1°F21.7°C 99% 3.5 mph WSW5.6 kmh WSW 4.6 mph7.4 kmh 31.70 in1073.5 mb - 0.08 in2.0 mm 1.34 in34.0 mm
07:40 PM 71.8°F22.1°C 71.5°F21.9°C 99% 2.3 mph WSW3.7 kmh WSW 2.3 mph3.7 kmh 31.70 in1073.5 mb - 0.06 in1.5 mm 1.34 in34.0 mm
07:45 PM 72.5°F22.5°C 72.2°F22.3°C 99% 1.2 mph WSW1.9 kmh WSW -- 31.67 in1072.5 mb - 0.04 in1.0 mm 1.34 in34.0 mm
07:50 PM 72.8°F22.7°C 72.5°F22.5°C 99% 2.3 mph W3.7 kmh W 2.3 mph3.7 kmh 31.67 in1072.5 mb - 0.04 in1.0 mm 1.34 in34.0 mm
07:55 PM 73.1°F22.8°C 72.8°F22.7°C 99% 2.3 mph WSW3.7 kmh WSW 2.3 mph3.7 kmh 31.65 in1071.8 mb - 0.03 in0.8 mm 1.34 in34.0 mm
08:00 PM 73.1°F22.8°C 72.8°F22.7°C 99% 2.3 mph WSW3.7 kmh WSW 2.3 mph3.7 kmh 31.65 in1071.8 mb - 0.02 in0.5 mm 1.34 in34.0 mm
08:10 PM 73.3°F22.9°C 73.0°F22.8°C 99% Calm Calm -- 31.63 in1071.1 mb - 0.02 in0.5 mm 1.34 in34.0 mm
08:15 PM 73.6°F23.1°C 73.3°F22.9°C 99% Calm Calm -- 31.63 in1071.1 mb - 0.01 in0.3 mm 1.34 in34.0 mm
08:20 PM 74.0°F23.3°C 73.7°F23.2°C 99% 2.3 mph WNW3.7 kmh WNW 1.2 mph1.9 kmh 31.60 in1070.1 mb - 0.01 in0.3 mm 1.34 in34.0 mm
08:25 PM 74.1°F23.4°C 73.8°F23.2°C 99% 2.3 mph WSW3.7 kmh WSW 1.2 mph1.9 kmh 31.60 in1070.1 mb - 0.00 in0.0 mm 1.34 in34.0 mm
08:30 PM 74.1°F23.4°C 73.8°F23.2°C 99% 2.3 mph WSW3.7 kmh WSW 2.3 mph3.7 kmh 31.60 in1070.1 mb - 0.00 in0.0 mm 1.34 in34.0 mm
08:35 PM 73.8°F23.2°C 73.5°F23.1°C 99% 3.5 mph WSW5.6 kmh WSW 3.5 mph5.6 kmh 31.60 in1070.1 mb - 0.00 in0.0 mm 1.34 in34.0 mm
08:40 PM 73.4°F23.0°C 73.2°F22.9°C 99% 3.5 mph SW5.6 kmh SW 4.6 mph7.4 kmh 31.60 in1070.1 mb - 0.00 in0.0 mm 1.34 in34.0 mm
08:45 PM 72.8°F22.7°C 72.5°F22.5°C 99% 3.5 mph WSW5.6 kmh WSW 3.5 mph5.6 kmh 31.59 in1069.8 mb - 0.00 in0.0 mm 1.34 in34.0 mm
08:50 PM 72.5°F22.5°C 72.2°F22.3°C 99% 2.3 mph N3.7 kmh N 2.3 mph3.7 kmh 31.59 in1069.8 mb - 0.00 in0.0 mm 1.34 in34.0 mm
08:55 PM 72.3°F22.4°C 72.0°F22.2°C 99% 1.2 mph S1.9 kmh S 3.5 mph5.6 kmh 31.61 in1070.4 mb - 0.00 in0.0 mm 1.34 in34.0 mm
09:00 PM 70.7°F21.5°C 70.4°F21.3°C 99% 2.3 mph SSW3.7 kmh SSW 1.2 mph1.9 kmh 31.61 in1070.4 mb - 0.00 in0.0 mm 1.34 in34.0 mm
09:10 PM 70.4°F21.3°C 70.1°F21.2°C 99% 2.3 mph N3.7 kmh N 2.3 mph3.7 kmh 31.63 in1071.1 mb - 0.00 in0.0 mm 1.34 in34.0 mm
09:15 PM 70.4°F21.3°C 70.1°F21.2°C 99% 2.3 mph N3.7 kmh N 2.3 mph3.7 kmh 31.63 in1071.1 mb - 0.00 in0.0 mm 1.34 in34.0 mm
09:20 PM 70.5°F21.4°C 70.2°F21.2°C 99% 1.2 mph S1.9 kmh S 2.3 mph3.7 kmh 31.70 in1073.5 mb - 0.00 in0.0 mm 1.34 in34.0 mm
09:25 PM 70.4°F21.3°C 70.1°F21.2°C 99% Calm Calm 3.5 mph5.6 kmh 31.70 in1073.5 mb - 0.00 in0.0 mm 1.34 in34.0 mm
09:30 PM 70.0°F21.1°C 69.7°F20.9°C 99% 2.3 mph NNW3.7 kmh NNW 2.3 mph3.7 kmh 31.76 in1075.5 mb - 0.00 in0.0 mm 1.34 in34.0 mm
09:35 PM 69.7°F20.9°C 69.4°F20.8°C 99% 3.5 mph NNW5.6 kmh NNW 4.6 mph7.4 kmh 31.76 in1075.5 mb - 0.00 in0.0 mm 1.34 in34.0 mm
09:40 PM 69.6°F20.9°C 69.3°F20.7°C 99% 3.5 mph NNW5.6 kmh NNW 3.5 mph5.6 kmh 31.76 in1075.5 mb - 0.00 in0.0 mm 1.34 in34.0 mm
09:45 PM 70.0°F21.1°C 69.7°F20.9°C 99% 3.5 mph NE5.6 kmh NE 4.6 mph7.4 kmh 31.82 in1077.5 mb - 0.00 in0.0 mm 1.34 in34.0 mm
09:50 PM 70.2°F21.2°C 69.9°F21.1°C 99% 2.3 mph NNW3.7 kmh NNW 2.3 mph3.7 kmh 31.82 in1077.5 mb - 0.00 in0.0 mm 1.34 in34.0 mm
09:55 PM 70.2°F21.2°C 69.9°F21.1°C 99% 2.3 mph NW3.7 kmh NW 3.5 mph5.6 kmh 31.86 in1078.9 mb - 0.00 in0.0 mm 1.34 in34.0 mm
10:00 PM 70.2°F21.2°C 69.9°F21.1°C 99% 3.5 mph ENE5.6 kmh ENE 4.6 mph7.4 kmh 31.86 in1078.9 mb - 0.00 in0.0 mm 1.34 in34.0 mm
10:10 PM 70.2°F21.2°C 69.9°F21.1°C 99% 3.5 mph W5.6 kmh W 3.5 mph5.6 kmh 31.86 in1078.9 mb - 0.00 in0.0 mm 1.34 in34.0 mm
10:15 PM 70.2°F21.2°C 69.9°F21.1°C 99% 2.3 mph SSW3.7 kmh SSW 2.3 mph3.7 kmh 31.86 in1078.9 mb - 0.00 in0.0 mm 1.34 in34.0 mm
10:20 PM 70.4°F21.3°C 70.1°F21.2°C 99% 3.5 mph SW5.6 kmh SW 4.6 mph7.4 kmh 31.86 in1078.9 mb - 0.00 in0.0 mm 1.34 in34.0 mm
10:25 PM 70.2°F21.2°C 69.9°F21.1°C 99% 3.5 mph SW5.6 kmh SW 3.5 mph5.6 kmh 31.86 in1078.9 mb - 0.00 in0.0 mm 1.34 in34.0 mm
10:30 PM 70.0°F21.1°C 69.7°F20.9°C 99% 3.5 mph WSW5.6 kmh WSW 4.6 mph7.4 kmh 31.86 in1078.9 mb - 0.00 in0.0 mm 1.34 in34.0 mm
10:35 PM 70.0°F21.1°C 69.7°F20.9°C 99% 2.3 mph WSW3.7 kmh WSW 3.5 mph5.6 kmh 31.86 in1078.9 mb - 0.00 in0.0 mm 1.34 in34.0 mm
10:40 PM 70.0°F21.1°C 69.7°F20.9°C 99% 3.5 mph WSW5.6 kmh WSW 3.5 mph5.6 kmh 31.86 in1078.9 mb - 0.00 in0.0 mm 1.34 in34.0 mm
10:45 PM 70.0°F21.1°C 69.7°F20.9°C 99% 3.5 mph SW5.6 kmh SW 3.5 mph5.6 kmh 31.86 in1078.9 mb - 0.00 in0.0 mm 1.34 in34.0 mm
10:50 PM 70.0°F21.1°C 69.7°F20.9°C 99% 3.5 mph SW5.6 kmh SW 3.5 mph5.6 kmh 31.86 in1078.9 mb - 0.00 in0.0 mm 1.34 in34.0 mm
10:55 PM 69.8°F21.0°C 69.5°F20.8°C 99% 3.5 mph SW5.6 kmh SW 4.6 mph7.4 kmh 31.86 in1078.9 mb - 0.00 in0.0 mm 1.34 in34.0 mm
11:00 PM 69.6°F20.9°C 69.3°F20.7°C 99% 3.5 mph WSW5.6 kmh WSW 4.6 mph7.4 kmh 31.86 in1078.9 mb - 0.00 in0.0 mm 1.34 in34.0 mm
11:10 PM 70.2°F21.2°C 69.9°F21.1°C 99% Calm Calm -- 31.86 in1078.9 mb - 0.00 in0.0 mm 1.34 in34.0 mm
11:15 PM 70.7°F21.5°C 70.4°F21.3°C 99% 2.3 mph NW3.7 kmh NW 3.5 mph5.6 kmh 31.86 in1078.9 mb - 0.00 in0.0 mm 1.34 in34.0 mm
11:20 PM 71.8°F22.1°C 71.5°F21.9°C 99% 3.5 mph N5.6 kmh N 4.6 mph7.4 kmh 31.86 in1078.9 mb - 0.00 in0.0 mm 1.34 in34.0 mm
11:25 PM 72.0°F22.2°C 71.7°F22.1°C 99% 4.6 mph N7.4 kmh N 5.8 mph9.3 kmh 31.86 in1078.9 mb - 0.00 in0.0 mm 1.34 in34.0 mm
11:30 PM 72.2°F22.3°C 71.9°F22.2°C 99% 4.6 mph NNE7.4 kmh NNE 6.9 mph11.1 kmh 31.86 in1078.9 mb - 0.00 in0.0 mm 1.34 in34.0 mm
11:35 PM 72.2°F22.3°C 71.9°F22.2°C 99% 4.6 mph NNW7.4 kmh NNW 5.8 mph9.3 kmh 31.86 in1078.9 mb - 0.00 in0.0 mm 1.34 in34.0 mm
11:40 PM 72.2°F22.3°C 71.9°F22.2°C 99% 6.9 mph N11.1 kmh N 8.1 mph13.0 kmh 31.86 in1078.9 mb - 0.00 in0.0 mm 1.34 in34.0 mm
11:45 PM 72.3°F22.4°C 72.0°F22.2°C 99% 6.9 mph NE11.1 kmh NE 6.9 mph11.1 kmh 31.86 in1078.9 mb - 0.00 in0.0 mm 1.34 in34.0 mm
11:50 PM 72.3°F22.4°C 72.0°F22.2°C 99% 5.8 mph NE9.3 kmh NE 5.8 mph9.3 kmh 31.86 in1078.9 mb - 0.00 in0.0 mm 1.34 in34.0 mm
11:55 PM 72.5°F22.5°C 72.2°F22.3°C 99% 5.8 mph N9.3 kmh N 6.9 mph11.1 kmh 31.86 in1078.9 mb - 0.00 in0.0 mm 1.34 in34.0 mm